デンバー の空港の天気 - METARとTAF

デンバー国際空港 ( KDEN / DEN ) - アメリカ コロラド州デンバー
飛行場実況気象(Metar)
観測時間10/21 09:53 MDT (10/21 15:53 UTC)
風向・風速西 4m/s
視程10km以上
天気現象
全天の4割程度の雲 雲底高度 4570m
全天の8割程度の雲 雲底高度 6710m
気温10℃
湿度52%
気圧1011.3hPa
METARKDEN 211553Z 28008KT 10SM SCT150 BKN220 10/01 A2994 RMK AO2 SLP113 T01000006 $
過去の天気等 Google飛行場航空写真 Wunderground天気予報

過去48時間のMETAR

飛行場予報(TAF)
発表時間: 10/21 09:08 MDT (10/21 15:08 UTC)
予報対象時間: 21日9時 MDT ~ 22日12時 MDT
風向・風速西 3m/s
視程10km以上
全天の4割程度の雲 雲底高度 3660m
全天の8割程度の雲 雲底高度 6710m
21日14時 MDT から
風向・風速東南東 6m/s
視程10km以上
天気現象
全天の4割程度の雲 雲底高度 3660m
全天の8割程度の雲 雲底高度 6710m
21日20時 MDT から
風向・風速南西 6m/s
視程10km以上
全天の4割程度の雲 雲底高度 3660m
全天の8割程度の雲 雲底高度 6710m
22日8時 MDT から
風向・風速北北東 7m/s 瞬間風速 12m/s
視程10km以上
全天の4割程度の雲 雲底高度 3660m
全天の8割程度の雲 雲底高度 6710m
KDEN 211508Z 2115/2218 28006KT P6SM SCT120 BKN220
FM212000 11011KT P6SM FU SCT120 BKN220
FM220200 23011KT P6SM SCT120 BKN220
FM221400 02014G24KT P6SM SCT120 BKN220